Boulder, CO (80304)

5:21 AM MDT on August 28, 2014 (GMT -0600)
Melody Heights | Change Station
CLOSE
Current Station
Personal Weather Station
Location: Boulder, CO
Elevation: 5440 ft
Nearby Weather Stations

Elev 5440 ft 40.04 °N, 105.28 °W | Updated 50 seconds ago

Clear
Clear
50.3 °F
Feels Like 50.3 °F
N
0.0
Wind Variable Wind from SW
Gusts 0.0 mph

Today
High -- | Low -- °F
--% Chance of Precip.
Yesterday
High -- | Low -- °F
Precip. -- in
6:25 AM 7:38 PM
Waxing Crescent, 7% visible
Pressure 30.11 in
Visibility 10.0 miles
Clouds Clear
Dew Point 48 °F
Humidity 93%
Rainfall 0.00 in
Snow Depth 0 in
UV 0 out of 12
Pollen 8.30 out of 12
Air Quality Not available.
Flu Activity Not available.
METAR KBDU 281115Z AUTO 17004KT 10SM CLR 12/08 A3011 RMK AO2

More Conditions Fewer Conditions

Pressure 30.11 in
Visibility 10.0 miles
Clouds Clear
Dew Point 48 °F
Humidity 93%
Rainfall 0.00 in
Snow Depth 0 in
UV 0 out of 12
Pollen 8.30 out of 12
Air Quality Not available.
Flu Activity Not available.
METAR KBDU 281115Z AUTO 17004KT 10SM CLR 12/08 A3011 RMK AO2

More Conditions Fewer Conditions

10-Day Weather Forecast

Almanac

Astronomy

Aug. 28, 2014 Rise Set
Actual Time 6:25 AM MDT 7:38 PM MDT
Civil Twilight 5:57 AM MDT 8:06 PM MDT
Nautical Twilight 5:23 AM MDT 8:40 PM MDT
Astronomical Twilight 4:48 AM MDT 9:15 PM MDT
Moon 9:19 AM MDT 9:04 PM MDT
Length of Visible Light 14h 09m
Length of Day
13h 13m
Tomorrow will be 2m 30s shorter.
Waxing Crescent, 7% of the Moon is Illuminated
Today
Waxing Crescent
Sep 2
First Quarter
Sep 8
Full
Sep 15
Last Quarter
Sep 24
New

Today's Extremes

State Highs State Lows

Community

WunderPhotos

Upload Photos

1,747,923 photos uploaded!

Nearby

Air Quality

  Air Quality AQ Index Pollutant
Yesterday Good
OZONE
Yesterday Good
PM10
Thursday Good
OZONE
Thursday Good
PM2.5

Snow Depth

Station Depth Elevation
Niwot 1 in 9910 ft
University Camp 0 in 10300 ft
Copeland Lake 0 in 8600 ft
Wild Basin 0 in 9560 ft
Berthoud Summit 0 in 11300 ft

Earthquake Activity

City Distance Mag. Time & Date
No recent earthquake activity has been reported nearby.
Minimum magnitude displayed is 2.5.

Coastal Water Temperatures

Place Temperature
No Stations Reporting

Nearby Weather Stations